sensor_id;sensor_type;location;lat;lon;timestamp;temperature;humidity
34249;DHT22;20508;50.834;3.160;2022-09-29T00:02:03;19.90;49.20
34249;DHT22;20508;50.834;3.160;2022-09-29T00:04:29;19.90;49.20
34249;DHT22;20508;50.834;3.160;2022-09-29T00:06:55;19.90;49.20
34249;DHT22;20508;50.834;3.160;2022-09-29T00:09:21;19.90;49.20
34249;DHT22;20508;50.834;3.160;2022-09-29T00:11:47;19.90;49.30
34249;DHT22;20508;50.834;3.160;2022-09-29T00:14:14;19.90;49.30
34249;DHT22;20508;50.834;3.160;2022-09-29T00:16:40;19.90;49.20
34249;DHT22;20508;50.834;3.160;2022-09-29T00:19:06;19.90;49.20
34249;DHT22;20508;50.834;3.160;2022-09-29T00:21:32;19.90;49.20
34249;DHT22;20508;50.834;3.160;2022-09-29T00:24:00;19.90;49.20
34249;DHT22;20508;50.834;3.160;2022-09-29T00:26:26;19.90;49.70
34249;DHT22;20508;50.834;3.160;2022-09-29T00:28:54;20.00;49.70
34249;DHT22;20508;50.834;3.160;2022-09-29T00:31:25;20.00;48.90
34249;DHT22;20508;50.834;3.160;2022-09-29T00:34:03;20.00;48.90
34249;DHT22;20508;50.834;3.160;2022-09-29T00:36:29;20.00;48.90
34249;DHT22;20508;50.834;3.160;2022-09-29T00:38:56;20.00;48.90
34249;DHT22;20508;50.834;3.160;2022-09-29T00:41:26;20.00;48.70
34249;DHT22;20508;50.834;3.160;2022-09-29T00:46:42;20.10;48.80
34249;DHT22;20508;50.834;3.160;2022-09-29T00:49:16;20.10;48.80
34249;DHT22;20508;50.834;3.160;2022-09-29T00:52:00;20.00;48.90
34249;DHT22;20508;50.834;3.160;2022-09-29T00:54:27;20.00;49.60
34249;DHT22;20508;50.834;3.160;2022-09-29T00:56:56;19.90;49.10
34249;DHT22;20508;50.834;3.160;2022-09-29T00:59:30;19.80;49.40
34249;DHT22;20508;50.834;3.160;2022-09-29T01:01:57;19.80;49.40
34249;DHT22;20508;50.834;3.160;2022-09-29T01:04:24;19.90;49.40
34249;DHT22;20508;50.834;3.160;2022-09-29T01:06:55;19.80;49.40
34249;DHT22;20508;50.834;3.160;2022-09-29T01:09:30;19.90;49.50
34249;DHT22;20508;50.834;3.160;2022-09-29T01:11:58;19.90;49.40
34249;DHT22;20508;50.834;3.160;2022-09-29T01:14:26;19.80;49.40
34249;DHT22;20508;50.834;3.160;2022-09-29T01:16:52;19.80;49.40
34249;DHT22;20508;50.834;3.160;2022-09-29T01:27:35;19.90;49.40
34249;DHT22;20508;50.834;3.160;2022-09-29T01:35:56;19.90;49.40
34249;DHT22;20508;50.834;3.160;2022-09-29T01:38:52;19.80;49.50
34249;DHT22;20508;50.834;3.160;2022-09-29T01:42:02;19.80;49.50
34249;DHT22;20508;50.834;3.160;2022-09-29T01:44:45;19.80;49.50
34249;DHT22;20508;50.834;3.160;2022-09-29T01:47:26;19.80;49.70
34249;DHT22;20508;50.834;3.160;2022-09-29T01:50:12;19.80;50.50
34249;DHT22;20508;50.834;3.160;2022-09-29T01:52:46;19.80;49.80
34249;DHT22;20508;50.834;3.160;2022-09-29T01:55:20;19.70;49.90
34249;DHT22;20508;50.834;3.160;2022-09-29T01:57:59;19.70;49.90
34249;DHT22;20508;50.834;3.160;2022-09-29T02:00:28;19.80;49.80
34249;DHT22;20508;50.834;3.160;2022-09-29T02:02:59;19.80;49.80
34249;DHT22;20508;50.834;3.160;2022-09-29T02:05:38;19.80;49.80
34249;DHT22;20508;50.834;3.160;2022-09-29T02:08:25;19.80;49.80
34249;DHT22;20508;50.834;3.160;2022-09-29T02:11:11;19.90;49.70
34249;DHT22;20508;50.834;3.160;2022-09-29T02:13:56;19.80;49.70
34249;DHT22;20508;50.834;3.160;2022-09-29T02:16:30;19.80;49.80
34249;DHT22;20508;50.834;3.160;2022-09-29T02:19:02;19.80;49.80
34249;DHT22;20508;50.834;3.160;2022-09-29T02:21:29;19.80;49.80
34249;DHT22;20508;50.834;3.160;2022-09-29T02:23:56;19.70;49.90
34249;DHT22;20508;50.834;3.160;2022-09-29T02:26:25;19.70;49.90
34249;DHT22;20508;50.834;3.160;2022-09-29T02:28:54;19.80;49.90
34249;DHT22;20508;50.834;3.160;2022-09-29T02:31:21;19.70;50.00
34249;DHT22;20508;50.834;3.160;2022-09-29T02:33:48;19.80;50.00
34249;DHT22;20508;50.834;3.160;2022-09-29T02:36:33;19.70;50.00
34249;DHT22;20508;50.834;3.160;2022-09-29T02:42:26;19.70;49.90
34249;DHT22;20508;50.834;3.160;2022-09-29T02:53:24;19.80;50.00
34249;DHT22;20508;50.834;3.160;2022-09-29T02:59:38;19.80;49.80
34249;DHT22;20508;50.834;3.160;2022-09-29T03:02:14;19.80;49.80
34249;DHT22;20508;50.834;3.160;2022-09-29T03:04:41;19.70;50.10
34249;DHT22;20508;50.834;3.160;2022-09-29T03:07:07;19.80;50.00
34249;DHT22;20508;50.834;3.160;2022-09-29T03:09:33;19.80;49.90
34249;DHT22;20508;50.834;3.160;2022-09-29T03:12:00;19.80;49.80
34249;DHT22;20508;50.834;3.160;2022-09-29T03:14:26;19.80;49.70
34249;DHT22;20508;50.834;3.160;2022-09-29T03:16:52;19.80;49.60
34249;DHT22;20508;50.834;3.160;2022-09-29T03:19:19;19.90;49.60
34249;DHT22;20508;50.834;3.160;2022-09-29T03:21:45;19.90;49.60
34249;DHT22;20508;50.834;3.160;2022-09-29T03:24:13;19.90;49.60
34249;DHT22;20508;50.834;3.160;2022-09-29T03:26:41;19.90;49.50
34249;DHT22;20508;50.834;3.160;2022-09-29T03:29:10;19.90;49.50
34249;DHT22;20508;50.834;3.160;2022-09-29T03:31:38;19.90;49.50
34249;DHT22;20508;50.834;3.160;2022-09-29T03:34:05;19.90;49.40
34249;DHT22;20508;50.834;3.160;2022-09-29T03:36:32;19.90;49.40
34249;DHT22;20508;50.834;3.160;2022-09-29T03:38:58;19.90;49.40
34249;DHT22;20508;50.834;3.160;2022-09-29T03:41:24;19.90;49.40
34249;DHT22;20508;50.834;3.160;2022-09-29T03:43:50;19.90;49.50
34249;DHT22;20508;50.834;3.160;2022-09-29T03:46:16;19.90;49.50
34249;DHT22;20508;50.834;3.160;2022-09-29T03:48:43;19.90;49.50
34249;DHT22;20508;50.834;3.160;2022-09-29T03:51:11;19.80;49.50
34249;DHT22;20508;50.834;3.160;2022-09-29T03:53:38;19.80;49.60
34249;DHT22;20508;50.834;3.160;2022-09-29T03:56:04;19.80;49.60
34249;DHT22;20508;50.834;3.160;2022-09-29T03:58:31;19.80;49.70
34249;DHT22;20508;50.834;3.160;2022-09-29T04:00:57;19.80;49.70
34249;DHT22;20508;50.834;3.160;2022-09-29T04:03:24;19.70;49.70
34249;DHT22;20508;50.834;3.160;2022-09-29T04:05:50;19.70;49.70
34249;DHT22;20508;50.834;3.160;2022-09-29T04:08:16;19.70;49.80
34249;DHT22;20508;50.834;3.160;2022-09-29T04:10:45;19.70;49.80
34249;DHT22;20508;50.834;3.160;2022-09-29T04:13:12;19.70;49.70
34249;DHT22;20508;50.834;3.160;2022-09-29T04:15:38;19.70;49.70
34249;DHT22;20508;50.834;3.160;2022-09-29T04:18:07;19.70;49.70
34249;DHT22;20508;50.834;3.160;2022-09-29T04:20:33;19.80;49.70
34249;DHT22;20508;50.834;3.160;2022-09-29T04:22:59;19.80;49.70
34249;DHT22;20508;50.834;3.160;2022-09-29T04:25:28;19.80;49.70
34249;DHT22;20508;50.834;3.160;2022-09-29T04:27:54;19.80;49.70
34249;DHT22;20508;50.834;3.160;2022-09-29T04:30:20;19.70;49.70
34249;DHT22;20508;50.834;3.160;2022-09-29T04:32:47;19.70;49.70
34249;DHT22;20508;50.834;3.160;2022-09-29T04:35:16;19.70;49.70
34249;DHT22;20508;50.834;3.160;2022-09-29T04:37:42;19.70;49.80
34249;DHT22;20508;50.834;3.160;2022-09-29T04:40:08;19.70;49.80
34249;DHT22;20508;50.834;3.160;2022-09-29T04:42:36;19.70;49.90
34249;DHT22;20508;50.834;3.160;2022-09-29T04:45:02;19.70;49.90
34249;DHT22;20508;50.834;3.160;2022-09-29T04:47:28;19.70;49.90
34249;DHT22;20508;50.834;3.160;2022-09-29T04:49:55;19.70;50.00
34249;DHT22;20508;50.834;3.160;2022-09-29T04:52:21;19.60;50.00
34249;DHT22;20508;50.834;3.160;2022-09-29T04:54:47;19.60;50.00
34249;DHT22;20508;50.834;3.160;2022-09-29T04:57:13;19.70;50.10
34249;DHT22;20508;50.834;3.160;2022-09-29T04:59:39;19.70;50.00
34249;DHT22;20508;50.834;3.160;2022-09-29T05:02:06;19.60;49.90
34249;DHT22;20508;50.834;3.160;2022-09-29T05:04:32;19.70;49.80
34249;DHT22;20508;50.834;3.160;2022-09-29T05:06:58;19.70;49.80
34249;DHT22;20508;50.834;3.160;2022-09-29T05:09:24;19.70;49.80
34249;DHT22;20508;50.834;3.160;2022-09-29T05:11:51;19.70;49.80
34249;DHT22;20508;50.834;3.160;2022-09-29T05:14:17;19.70;49.90
34249;DHT22;20508;50.834;3.160;2022-09-29T05:16:43;19.70;49.80
34249;DHT22;20508;50.834;3.160;2022-09-29T05:19:10;19.60;49.80
34249;DHT22;20508;50.834;3.160;2022-09-29T05:21:36;19.60;49.90
34249;DHT22;20508;50.834;3.160;2022-09-29T05:24:02;19.60;49.90
34249;DHT22;20508;50.834;3.160;2022-09-29T05:26:28;19.60;49.90
34249;DHT22;20508;50.834;3.160;2022-09-29T05:28:57;19.60;50.00
34249;DHT22;20508;50.834;3.160;2022-09-29T05:31:23;19.60;50.10
34249;DHT22;20508;50.834;3.160;2022-09-29T05:33:49;19.60;50.00
34249;DHT22;20508;50.834;3.160;2022-09-29T05:36:15;19.60;50.10
34249;DHT22;20508;50.834;3.160;2022-09-29T05:38:41;19.60;50.10
34249;DHT22;20508;50.834;3.160;2022-09-29T05:41:09;19.60;50.10
34249;DHT22;20508;50.834;3.160;2022-09-29T05:43:37;19.70;50.10
34249;DHT22;20508;50.834;3.160;2022-09-29T05:46:08;19.70;50.10
34249;DHT22;20508;50.834;3.160;2022-09-29T05:48:34;19.70;50.00
34249;DHT22;20508;50.834;3.160;2022-09-29T05:51:07;19.70;50.00
34249;DHT22;20508;50.834;3.160;2022-09-29T05:53:35;19.70;49.80
34249;DHT22;20508;50.834;3.160;2022-09-29T05:56:09;19.70;49.90
34249;DHT22;20508;50.834;3.160;2022-09-29T05:58:36;19.80;49.80
34249;DHT22;20508;50.834;3.160;2022-09-29T06:01:07;19.70;49.70
34249;DHT22;20508;50.834;3.160;2022-09-29T06:03:34;19.80;49.60
34249;DHT22;20508;50.834;3.160;2022-09-29T06:06:11;19.80;49.60
34249;DHT22;20508;50.834;3.160;2022-09-29T06:08:38;19.80;49.60
34249;DHT22;20508;50.834;3.160;2022-09-29T06:11:13;19.80;49.60
34249;DHT22;20508;50.834;3.160;2022-09-29T06:13:42;19.80;49.50
34249;DHT22;20508;50.834;3.160;2022-09-29T06:16:09;19.80;49.60
34249;DHT22;20508;50.834;3.160;2022-09-29T06:18:36;19.80;49.70
34249;DHT22;20508;50.834;3.160;2022-09-29T06:21:02;19.80;49.70
34249;DHT22;20508;50.834;3.160;2022-09-29T06:23:31;19.80;49.70
34249;DHT22;20508;50.834;3.160;2022-09-29T06:26:05;19.70;49.70
34249;DHT22;20508;50.834;3.160;2022-09-29T06:28:32;19.70;49.60
34249;DHT22;20508;50.834;3.160;2022-09-29T06:31:00;19.70;49.70
34249;DHT22;20508;50.834;3.160;2022-09-29T06:33:31;19.80;49.70
34249;DHT22;20508;50.834;3.160;2022-09-29T06:36:03;19.80;49.70
34249;DHT22;20508;50.834;3.160;2022-09-29T06:38:48;19.80;49.70
34249;DHT22;20508;50.834;3.160;2022-09-29T06:41:14;19.70;49.70
34249;DHT22;20508;50.834;3.160;2022-09-29T06:43:40;19.70;49.80
34249;DHT22;20508;50.834;3.160;2022-09-29T06:46:06;19.70;49.90
34249;DHT22;20508;50.834;3.160;2022-09-29T06:48:32;19.70;49.90
34249;DHT22;20508;50.834;3.160;2022-09-29T06:50:58;19.70;49.90
34249;DHT22;20508;50.834;3.160;2022-09-29T06:53:25;19.60;49.90
34249;DHT22;20508;50.834;3.160;2022-09-29T06:55:55;19.60;49.90
34249;DHT22;20508;50.834;3.160;2022-09-29T06:58:24;19.70;50.00
34249;DHT22;20508;50.834;3.160;2022-09-29T07:00:51;19.60;50.00
34249;DHT22;20508;50.834;3.160;2022-09-29T07:03:17;19.60;50.10
34249;DHT22;20508;50.834;3.160;2022-09-29T07:05:43;19.60;50.10
34249;DHT22;20508;50.834;3.160;2022-09-29T07:08:09;19.60;50.20
34249;DHT22;20508;50.834;3.160;2022-09-29T07:10:36;19.60;50.10
34249;DHT22;20508;50.834;3.160;2022-09-29T07:13:03;19.70;50.10
34249;DHT22;20508;50.834;3.160;2022-09-29T07:15:30;19.60;50.00
34249;DHT22;20508;50.834;3.160;2022-09-29T07:17:57;19.70;50.00
34249;DHT22;20508;50.834;3.160;2022-09-29T07:20:28;19.70;50.00
34249;DHT22;20508;50.834;3.160;2022-09-29T07:22:56;19.60;50.00
34249;DHT22;20508;50.834;3.160;2022-09-29T07:25:23;19.60;50.00
34249;DHT22;20508;50.834;3.160;2022-09-29T07:27:49;19.60;50.10
34249;DHT22;20508;50.834;3.160;2022-09-29T07:30:17;19.60;50.20
34249;DHT22;20508;50.834;3.160;2022-09-29T07:32:43;19.60;50.10
34249;DHT22;20508;50.834;3.160;2022-09-29T07:35:10;19.60;50.80
34249;DHT22;20508;50.834;3.160;2022-09-29T07:37:36;19.60;50.20
34249;DHT22;20508;50.834;3.160;2022-09-29T07:40:02;19.60;50.20
34249;DHT22;20508;50.834;3.160;2022-09-29T07:42:28;19.60;50.30
34249;DHT22;20508;50.834;3.160;2022-09-29T07:44:55;19.50;50.30
34249;DHT22;20508;50.834;3.160;2022-09-29T07:47:21;19.50;50.30
34249;DHT22;20508;50.834;3.160;2022-09-29T07:49:47;19.60;50.40
34249;DHT22;20508;50.834;3.160;2022-09-29T07:52:14;19.60;50.40
34249;DHT22;20508;50.834;3.160;2022-09-29T07:54:41;19.60;50.40
34249;DHT22;20508;50.834;3.160;2022-09-29T07:57:07;19.60;50.40
34249;DHT22;20508;50.834;3.160;2022-09-29T07:59:33;19.60;50.30
34249;DHT22;20508;50.834;3.160;2022-09-29T08:01:59;19.60;50.20
34249;DHT22;20508;50.834;3.160;2022-09-29T08:04:27;19.60;50.20
34249;DHT22;20508;50.834;3.160;2022-09-29T08:06:53;19.60;50.20
34249;DHT22;20508;50.834;3.160;2022-09-29T08:09:19;19.60;50.80
34249;DHT22;20508;50.834;3.160;2022-09-29T08:11:45;19.60;50.20
34249;DHT22;20508;50.834;3.160;2022-09-29T08:14:11;19.60;50.30
34249;DHT22;20508;50.834;3.160;2022-09-29T08:16:38;19.60;50.30
34249;DHT22;20508;50.834;3.160;2022-09-29T08:19:04;19.60;50.40
34249;DHT22;20508;50.834;3.160;2022-09-29T08:21:33;19.60;50.40
34249;DHT22;20508;50.834;3.160;2022-09-29T08:24:03;19.50;50.40
34249;DHT22;20508;50.834;3.160;2022-09-29T08:26:32;19.60;50.40
34249;DHT22;20508;50.834;3.160;2022-09-29T08:29:01;19.60;50.50
34249;DHT22;20508;50.834;3.160;2022-09-29T08:31:27;19.50;50.50
34249;DHT22;20508;50.834;3.160;2022-09-29T08:33:56;19.50;50.50
34249;DHT22;20508;50.834;3.160;2022-09-29T08:36:25;19.50;50.50
34249;DHT22;20508;50.834;3.160;2022-09-29T08:38:53;19.50;50.60
34249;DHT22;20508;50.834;3.160;2022-09-29T08:44:11;19.60;50.30
34249;DHT22;20508;50.834;3.160;2022-09-29T08:46:45;19.60;50.40
34249;DHT22;20508;50.834;3.160;2022-09-29T08:49:15;19.70;51.00
34249;DHT22;20508;50.834;3.160;2022-09-29T08:51:47;19.60;50.20
34249;DHT22;20508;50.834;3.160;2022-09-29T08:54:18;19.60;50.40
34249;DHT22;20508;50.834;3.160;2022-09-29T08:56:46;19.70;50.30
34249;DHT22;20508;50.834;3.160;2022-09-29T08:59:12;19.60;50.50
34249;DHT22;20508;50.834;3.160;2022-09-29T09:01:59;19.70;50.30
34249;DHT22;20508;50.834;3.160;2022-09-29T09:07:36;19.80;50.10
34249;DHT22;20508;50.834;3.160;2022-09-29T09:16:19;19.60;50.40
34249;DHT22;20508;50.834;3.160;2022-09-29T09:19:01;19.70;50.40
34249;DHT22;20508;50.834;3.160;2022-09-29T09:21:43;19.70;50.50
34249;DHT22;20508;50.834;3.160;2022-09-29T09:24:21;19.60;50.40
34249;DHT22;20508;50.834;3.160;2022-09-29T09:26:50;19.70;50.40
34249;DHT22;20508;50.834;3.160;2022-09-29T09:29:18;19.70;50.50
34249;DHT22;20508;50.834;3.160;2022-09-29T09:38:01;19.70;50.30
34249;DHT22;20508;50.834;3.160;2022-09-29T09:40:42;19.70;50.50
34249;DHT22;20508;50.834;3.160;2022-09-29T09:43:30;19.70;50.50
34249;DHT22;20508;50.834;3.160;2022-09-29T09:46:10;19.70;50.40
34249;DHT22;20508;50.834;3.160;2022-09-29T09:48:41;19.70;50.50
34249;DHT22;20508;50.834;3.160;2022-09-29T09:51:33;19.60;50.50
34249;DHT22;20508;50.834;3.160;2022-09-29T09:54:04;19.60;50.50
34249;DHT22;20508;50.834;3.160;2022-09-29T09:56:54;19.60;50.70
34249;DHT22;20508;50.834;3.160;2022-09-29T09:59:43;19.70;50.70
34249;DHT22;20508;50.834;3.160;2022-09-29T10:02:20;19.70;50.70
34249;DHT22;20508;50.834;3.160;2022-09-29T10:04:53;19.70;50.80
34249;DHT22;20508;50.834;3.160;2022-09-29T10:07:21;19.70;50.80
34249;DHT22;20508;50.834;3.160;2022-09-29T10:09:49;19.60;50.70
34249;DHT22;20508;50.834;3.160;2022-09-29T10:12:21;19.70;50.70
34249;DHT22;20508;50.834;3.160;2022-09-29T10:14:59;19.70;50.60
34249;DHT22;20508;50.834;3.160;2022-09-29T10:17:32;19.70;50.50
34249;DHT22;20508;50.834;3.160;2022-09-29T10:20:06;19.70;50.60
34249;DHT22;20508;50.834;3.160;2022-09-29T10:22:33;19.70;50.50
34249;DHT22;20508;50.834;3.160;2022-09-29T10:25:16;19.70;50.60
34249;DHT22;20508;50.834;3.160;2022-09-29T10:27:49;19.80;50.60
34249;DHT22;20508;50.834;3.160;2022-09-29T10:30:22;19.70;50.60
34249;DHT22;20508;50.834;3.160;2022-09-29T10:32:52;19.70;50.70
34249;DHT22;20508;50.834;3.160;2022-09-29T10:35:35;19.70;50.70
34249;DHT22;20508;50.834;3.160;2022-09-29T10:38:05;19.70;50.70
34249;DHT22;20508;50.834;3.160;2022-09-29T10:40:32;19.70;50.80
34249;DHT22;20508;50.834;3.160;2022-09-29T10:43:21;19.60;50.80
34249;DHT22;20508;50.834;3.160;2022-09-29T10:45:49;19.70;50.70
34249;DHT22;20508;50.834;3.160;2022-09-29T10:48:15;19.60;50.80
34249;DHT22;20508;50.834;3.160;2022-09-29T10:51:13;19.70;50.80
34249;DHT22;20508;50.834;3.160;2022-09-29T10:53:41;19.70;50.60
34249;DHT22;20508;50.834;3.160;2022-09-29T10:56:21;19.70;50.70
34249;DHT22;20508;50.834;3.160;2022-09-29T10:58:57;19.80;50.60
34249;DHT22;20508;50.834;3.160;2022-09-29T11:01:25;19.80;50.60
34249;DHT22;20508;50.834;3.160;2022-09-29T11:03:55;19.80;50.60
34249;DHT22;20508;50.834;3.160;2022-09-29T11:06:30;19.80;50.60
34249;DHT22;20508;50.834;3.160;2022-09-29T11:09:05;19.80;50.60
34249;DHT22;20508;50.834;3.160;2022-09-29T11:11:35;19.80;50.60
34249;DHT22;20508;50.834;3.160;2022-09-29T11:14:02;19.70;50.60
34249;DHT22;20508;50.834;3.160;2022-09-29T11:16:34;19.70;50.70
34249;DHT22;20508;50.834;3.160;2022-09-29T11:19:10;19.80;50.70
34249;DHT22;20508;50.834;3.160;2022-09-29T11:22:03;19.70;50.60
34249;DHT22;20508;50.834;3.160;2022-09-29T11:30:25;19.70;50.80
34249;DHT22;20508;50.834;3.160;2022-09-29T11:35:54;19.70;50.80
34249;DHT22;20508;50.834;3.160;2022-09-29T11:38:53;19.80;50.80
34249;DHT22;20508;50.834;3.160;2022-09-29T11:41:51;19.90;50.50
34249;DHT22;20508;50.834;3.160;2022-09-29T11:57:46;20.00;50.20
34249;DHT22;20508;50.834;3.160;2022-09-29T12:00:18;20.00;50.20
34249;DHT22;20508;50.834;3.160;2022-09-29T12:03:15;20.00;50.20
34249;DHT22;20508;50.834;3.160;2022-09-29T12:08:54;20.00;50.20
34249;DHT22;20508;50.834;3.160;2022-09-29T12:14:21;19.90;50.40
34249;DHT22;20508;50.834;3.160;2022-09-29T12:16:57;19.80;50.50
34249;DHT22;20508;50.834;3.160;2022-09-29T12:19:31;19.90;50.50
34249;DHT22;20508;50.834;3.160;2022-09-29T12:22:00;19.90;50.50
34249;DHT22;20508;50.834;3.160;2022-09-29T12:24:44;19.90;50.50
34249;DHT22;20508;50.834;3.160;2022-09-29T12:27:20;20.00;50.40
34249;DHT22;20508;50.834;3.160;2022-09-29T12:29:54;19.90;50.40
34249;DHT22;20508;50.834;3.160;2022-09-29T12:33:12;19.90;50.50
34249;DHT22;20508;50.834;3.160;2022-09-29T12:38:40;19.90;50.60
34249;DHT22;20508;50.834;3.160;2022-09-29T12:41:15;19.90;50.60
34249;DHT22;20508;50.834;3.160;2022-09-29T12:44:05;19.80;50.70
34249;DHT22;20508;50.834;3.160;2022-09-29T12:46:45;19.80;51.30
34249;DHT22;20508;50.834;3.160;2022-09-29T12:49:32;19.80;50.80
34249;DHT22;20508;50.834;3.160;2022-09-29T12:52:02;19.80;50.70
34249;DHT22;20508;50.834;3.160;2022-09-29T12:54:47;19.80;50.90
34249;DHT22;20508;50.834;3.160;2022-09-29T12:57:25;19.80;50.90
34249;DHT22;20508;50.834;3.160;2022-09-29T13:00:06;19.80;51.00
34249;DHT22;20508;50.834;3.160;2022-09-29T13:02:46;19.80;50.90
34249;DHT22;20508;50.834;3.160;2022-09-29T13:05:25;19.80;51.00
34249;DHT22;20508;50.834;3.160;2022-09-29T13:13:33;19.80;50.80
34249;DHT22;20508;50.834;3.160;2022-09-29T13:16:16;19.80;50.90
34249;DHT22;20508;50.834;3.160;2022-09-29T13:21:51;19.80;50.80
34249;DHT22;20508;50.834;3.160;2022-09-29T13:24:42;19.80;51.00
34249;DHT22;20508;50.834;3.160;2022-09-29T13:27:35;19.80;50.90
34249;DHT22;20508;50.834;3.160;2022-09-29T13:30:19;19.80;50.90
34249;DHT22;20508;50.834;3.160;2022-09-29T13:33:00;19.80;51.00
34249;DHT22;20508;50.834;3.160;2022-09-29T13:35:27;19.80;51.10
34249;DHT22;20508;50.834;3.160;2022-09-29T13:37:56;19.70;51.20
34249;DHT22;20508;50.834;3.160;2022-09-29T13:40:28;19.70;51.20
34249;DHT22;20508;50.834;3.160;2022-09-29T13:42:56;19.70;51.20
34249;DHT22;20508;50.834;3.160;2022-09-29T13:50:49;19.80;51.00
34249;DHT22;20508;50.834;3.160;2022-09-29T13:58:34;19.80;51.00
34249;DHT22;20508;50.834;3.160;2022-09-29T14:01:05;19.80;51.00
34249;DHT22;20508;50.834;3.160;2022-09-29T14:03:44;19.80;51.10
34249;DHT22;20508;50.834;3.160;2022-09-29T14:06:22;19.80;51.00
34249;DHT22;20508;50.834;3.160;2022-09-29T14:14:24;19.70;51.00
34249;DHT22;20508;50.834;3.160;2022-09-29T14:19:37;19.70;51.10
34249;DHT22;20508;50.834;3.160;2022-09-29T14:27:39;19.70;51.20
34249;DHT22;20508;50.834;3.160;2022-09-29T14:33:12;19.80;51.80
34249;DHT22;20508;50.834;3.160;2022-09-29T14:43:45;19.90;50.60
34249;DHT22;20508;50.834;3.160;2022-09-29T14:49:34;20.00;50.50
34249;DHT22;20508;50.834;3.160;2022-09-29T14:52:54;20.00;50.40
34249;DHT22;20508;50.834;3.160;2022-09-29T14:58:20;19.90;50.60
34249;DHT22;20508;50.834;3.160;2022-09-29T15:01:08;19.90;50.60
34249;DHT22;20508;50.834;3.160;2022-09-29T15:03:45;19.90;50.70
34249;DHT22;20508;50.834;3.160;2022-09-29T15:06:17;19.90;50.80
34249;DHT22;20508;50.834;3.160;2022-09-29T15:11:34;19.80;50.90
34249;DHT22;20508;50.834;3.160;2022-09-29T15:14:20;19.80;51.20
34249;DHT22;20508;50.834;3.160;2022-09-29T15:17:04;19.80;51.00
34249;DHT22;20508;50.834;3.160;2022-09-29T15:19:41;19.80;51.00
34249;DHT22;20508;50.834;3.160;2022-09-29T15:27:53;19.90;50.90
34249;DHT22;20508;50.834;3.160;2022-09-29T15:30:21;19.80;51.00
34249;DHT22;20508;50.834;3.160;2022-09-29T15:32:49;19.80;51.00
34249;DHT22;20508;50.834;3.160;2022-09-29T15:35:25;19.80;51.00
34249;DHT22;20508;50.834;3.160;2022-09-29T15:37:57;19.80;51.00
34249;DHT22;20508;50.834;3.160;2022-09-29T15:40:25;19.80;51.00
34249;DHT22;20508;50.834;3.160;2022-09-29T15:42:52;19.80;51.10
34249;DHT22;20508;50.834;3.160;2022-09-29T15:45:27;19.80;51.10
34249;DHT22;20508;50.834;3.160;2022-09-29T15:48:05;19.80;51.10
34249;DHT22;20508;50.834;3.160;2022-09-29T15:50:42;19.80;51.10
34249;DHT22;20508;50.834;3.160;2022-09-29T15:53:09;19.80;51.20
34249;DHT22;20508;50.834;3.160;2022-09-29T15:55:36;19.80;51.30
34249;DHT22;20508;50.834;3.160;2022-09-29T16:01:03;19.80;51.10
34249;DHT22;20508;50.834;3.160;2022-09-29T16:03:47;19.80;51.20
34249;DHT22;20508;50.834;3.160;2022-09-29T16:06:29;19.80;51.20
34249;DHT22;20508;50.834;3.160;2022-09-29T16:09:05;19.90;51.20
34249;DHT22;20508;50.834;3.160;2022-09-29T16:11:34;19.80;51.20
34249;DHT22;20508;50.834;3.160;2022-09-29T16:14:20;19.80;51.20
34249;DHT22;20508;50.834;3.160;2022-09-29T16:16:49;19.90;51.10
34249;DHT22;20508;50.834;3.160;2022-09-29T16:21:50;19.80;51.20
34249;DHT22;20508;50.834;3.160;2022-09-29T16:24:20;19.80;51.20
34249;DHT22;20508;50.834;3.160;2022-09-29T16:26:54;19.70;51.20
34249;DHT22;20508;50.834;3.160;2022-09-29T16:31:52;19.80;51.30
34249;DHT22;20508;50.834;3.160;2022-09-29T16:34:23;19.80;51.30
34249;DHT22;20508;50.834;3.160;2022-09-29T16:36:57;19.80;51.30
34249;DHT22;20508;50.834;3.160;2022-09-29T16:39:38;19.80;51.30
34249;DHT22;20508;50.834;3.160;2022-09-29T16:42:06;19.80;51.30
34249;DHT22;20508;50.834;3.160;2022-09-29T16:44:43;19.70;51.30
34249;DHT22;20508;50.834;3.160;2022-09-29T16:49:50;19.80;51.30
34249;DHT22;20508;50.834;3.160;2022-09-29T16:55:31;19.80;51.10
34249;DHT22;20508;50.834;3.160;2022-09-29T16:58:00;19.90;51.10
34249;DHT22;20508;50.834;3.160;2022-09-29T17:00:27;19.80;51.20
34249;DHT22;20508;50.834;3.160;2022-09-29T17:02:54;19.80;51.20
34249;DHT22;20508;50.834;3.160;2022-09-29T17:05:23;19.80;51.20
34249;DHT22;20508;50.834;3.160;2022-09-29T17:07:50;19.80;51.20
34249;DHT22;20508;50.834;3.160;2022-09-29T17:10:24;19.80;51.30
34249;DHT22;20508;50.834;3.160;2022-09-29T17:12:51;19.70;51.30
34249;DHT22;20508;50.834;3.160;2022-09-29T17:15:18;19.80;51.40
34249;DHT22;20508;50.834;3.160;2022-09-29T17:17:46;19.80;51.50
34249;DHT22;20508;50.834;3.160;2022-09-29T17:20:15;19.80;52.10
34249;DHT22;20508;50.834;3.160;2022-09-29T17:22:42;19.80;51.40
34249;DHT22;20508;50.834;3.160;2022-09-29T17:25:10;19.80;51.30
34249;DHT22;20508;50.834;3.160;2022-09-29T17:27:37;19.80;51.20
34249;DHT22;20508;50.834;3.160;2022-09-29T17:30:23;19.90;51.10
34249;DHT22;20508;50.834;3.160;2022-09-29T17:32:52;19.90;51.00
34249;DHT22;20508;50.834;3.160;2022-09-29T17:35:20;20.00;50.90
34249;DHT22;20508;50.834;3.160;2022-09-29T17:37:48;20.00;50.80
34249;DHT22;20508;50.834;3.160;2022-09-29T17:40:26;20.00;50.80
34249;DHT22;20508;50.834;3.160;2022-09-29T17:42:54;20.10;50.60
34249;DHT22;20508;50.834;3.160;2022-09-29T17:45:23;20.00;50.70
34249;DHT22;20508;50.834;3.160;2022-09-29T17:47:50;20.10;50.70
34249;DHT22;20508;50.834;3.160;2022-09-29T17:50:27;20.00;50.70
34249;DHT22;20508;50.834;3.160;2022-09-29T17:52:58;20.00;50.70
34249;DHT22;20508;50.834;3.160;2022-09-29T17:55:26;20.00;50.80
34249;DHT22;20508;50.834;3.160;2022-09-29T17:57:52;19.90;50.80
34249;DHT22;20508;50.834;3.160;2022-09-29T18:00:27;19.90;50.90
34249;DHT22;20508;50.834;3.160;2022-09-29T18:02:54;19.90;50.90
34249;DHT22;20508;50.834;3.160;2022-09-29T18:05:26;19.90;51.00
34249;DHT22;20508;50.834;3.160;2022-09-29T18:07:54;19.90;51.10
34249;DHT22;20508;50.834;3.160;2022-09-29T18:10:34;19.90;51.10
34249;DHT22;20508;50.834;3.160;2022-09-29T18:13:01;19.90;51.00
34249;DHT22;20508;50.834;3.160;2022-09-29T18:15:29;19.90;51.10
34249;DHT22;20508;50.834;3.160;2022-09-29T18:18:00;19.90;51.10
34249;DHT22;20508;50.834;3.160;2022-09-29T18:20:28;19.90;51.00
34249;DHT22;20508;50.834;3.160;2022-09-29T18:22:55;19.90;51.00
34249;DHT22;20508;50.834;3.160;2022-09-29T18:25:27;19.90;51.00
34249;DHT22;20508;50.834;3.160;2022-09-29T18:27:54;19.90;51.00
34249;DHT22;20508;50.834;3.160;2022-09-29T18:30:29;19.90;51.10
34249;DHT22;20508;50.834;3.160;2022-09-29T18:32:58;19.90;51.00